Time;durP1;ratioP1;P1;durP2;ratioP2;P2;SDS_P1;SDS_P2;PMS_P1;PMS_P2;Temp;Humidity;BMP_temperature;BMP_pressure;BME280_temperature;BME280_humidity;BME280_pressure;Samples;Min_cycle;Max_cycle;Signal;HPM_P1;HPM_P2
2022/02/02 00:01:19;;;;;;;16.70;15.70;;;8.10;88.40;;;;;;5053010;28;20586;-72
2022/02/02 00:03:51;;;;;;;18.52;17.52;;;8.10;88.40;;;;;;5053375;28;20200;-72
2022/02/02 00:06:22;;;;;;;17.00;16.00;;;8.00;88.70;;;;;;5053101;28;20208;-72
2022/02/02 00:08:59;;;;;;;17.75;16.70;;;8.00;88.70;;;;;;5053214;28;20720;-72
2022/02/02 00:14:27;;;;;;;16.65;15.55;;;8.00;88.30;;;;;;5052860;28;20196;-71
2022/02/02 00:16:59;;;;;;;16.58;15.60;;;8.00;88.10;;;;;;5052728;28;20590;-71
2022/02/02 00:19:39;;;;;;;17.48;16.38;;;8.00;88.70;;;;;;5052823;28;20293;-71
2022/02/02 00:22:11;;;;;;;17.15;16.15;;;7.90;88.00;;;;;;5053108;28;20200;-72
2022/02/02 00:24:55;;;;;;;17.40;16.50;;;8.00;87.50;;;;;;5052968;28;20606;-71
2022/02/02 00:27:24;;;;;;;16.52;15.52;;;8.10;86.80;;;;;;5052774;28;20223;-71
2022/02/02 00:29:55;;;;;;;17.67;16.73;;;8.10;86.30;;;;;;5052376;28;20713;-72
2022/02/02 00:32:34;;;;;;;17.13;16.25;;;8.10;85.80;;;;;;5052777;28;20231;-71
2022/02/02 00:48:32;;;;;;;17.27;16.30;;;8.00;86.30;;;;;;5052428;28;20648;-71
2022/02/02 00:50:59;;;;;;;16.95;16.10;;;7.90;86.20;;;;;;5052108;28;20311;-71
2022/02/02 00:53:26;;;;;;;17.05;16.10;;;8.00;85.70;;;;;;5052331;28;20684;-71
2022/02/02 00:55:54;;;;;;;16.95;16.00;;;8.00;85.60;;;;;;5052332;28;20196;-71
2022/02/02 00:58:21;;;;;;;16.80;15.90;;;8.00;85.70;;;;;;5052134;28;20606;-71
2022/02/02 01:00:48;;;;;;;17.17;16.15;;;8.00;85.40;;;;;;5052022;28;20274;-71
2022/02/02 01:03:15;;;;;;;16.95;15.95;;;8.00;85.40;;;;;;5052247;28;20201;-71
2022/02/02 01:05:43;;;;;;;17.17;16.08;;;8.10;85.00;;;;;;5052214;28;20213;-71
2022/02/02 01:11:01;;;;;;;17.40;16.40;;;8.10;84.50;;;;;;5051734;28;20228;-71
2022/02/02 01:19:01;;;;;;;17.92;16.92;;;8.20;83.40;;;;;;5052138;28;20323;-71
2022/02/02 01:21:42;;;;;;;17.83;16.73;;;8.20;83.20;;;;;;5051987;28;20227;-71
2022/02/02 01:29:38;;;;;;;19.20;17.80;;;8.40;82.00;;;;;;5055882;28;20228;-71
2022/02/02 01:32:06;;;;;;;18.88;17.75;;;8.30;81.90;;;;;;5055993;28;20196;-72
2022/02/02 01:34:33;;;;;;;18.38;17.38;;;8.20;82.30;;;;;;5056047;28;20654;-71
2022/02/02 01:37:01;;;;;;;19.48;17.98;;;8.30;82.10;;;;;;5056096;28;20223;-72
2022/02/02 01:39:30;;;;;;;18.45;17.45;;;8.40;81.90;;;;;;5055743;28;20244;-72
2022/02/02 01:41:58;;;;;;;19.05;17.55;;;8.40;82.00;;;;;;5055843;28;20251;-72
2022/02/02 01:44:32;;;;;;;18.95;17.52;;;8.50;81.40;;;;;;5055764;28;20670;-72
2022/02/02 01:47:00;;;;;;;18.60;17.50;;;8.60;81.30;;;;;;5055927;28;20201;-72
2022/02/02 01:52:24;;;;;;;18.77;17.60;;;8.50;81.30;;;;;;5055500;28;20558;-71
2022/02/02 01:54:57;;;;;;;18.95;17.85;;;8.50;81.50;;;;;;5055619;28;20196;-72
2022/02/02 02:00:13;;;;;;;18.23;17.27;;;8.70;81.40;;;;;;5051438;28;20230;-72
2022/02/02 02:02:40;;;;;;;18.42;17.25;;;8.70;81.40;;;;;;5055443;28;20201;-71
2022/02/02 02:05:08;;;;;;;18.30;17.15;;;8.70;81.50;;;;;;5055395;28;20196;-72
2022/02/02 02:07:36;;;;;;;18.95;17.75;;;8.60;81.30;;;;;;5055434;28;20201;-71
2022/02/02 02:10:04;;;;;;;19.25;17.90;;;8.60;81.90;;;;;;5055127;28;20588;-71
2022/02/02 02:12:38;;;;;;;18.13;17.00;;;8.60;81.60;;;;;;5055096;28;20557;-71
2022/02/02 02:15:07;;;;;;;19.05;17.92;;;8.50;82.10;;;;;;5055289;28;20211;-72
2022/02/02 02:17:34;;;;;;;19.33;18.20;;;8.50;82.10;;;;;;5055054;28;20255;-71
2022/02/02 02:20:01;;;;;;;18.80;17.58;;;8.60;82.10;;;;;;5054878;28;20573;-72
2022/02/02 02:22:34;;;;;;;18.80;17.48;;;8.60;82.00;;;;;;5055209;28;20582;-72
2022/02/02 02:25:01;;;;;;;19.50;18.15;;;8.60;82.30;;;;;;5055181;28;20286;-72
2022/02/02 02:27:28;;;;;;;19.25;18.10;;;8.70;82.10;;;;;;5055073;28;20284;-72
2022/02/02 02:30:05;;;;;;;20.48;18.98;;;8.70;81.80;;;;;;5054762;28;20221;-72
2022/02/02 02:32:57;;;;;;;19.83;18.52;;;8.80;81.50;;;;;;5055080;28;20204;-72
2022/02/02 02:35:42;;;;;;;20.50;18.77;;;8.80;81.70;;;;;;5054083;28;20539;-72
2022/02/02 02:38:47;;;;;;;20.75;19.35;;;8.70;81.90;;;;;;5054912;28;20232;-71
2022/02/02 02:57:47;;;;;;;21.98;20.15;;;8.60;82.30;;;;;;5054599;28;20247;-72
2022/02/02 03:00:26;;;;;;;21.85;19.75;;;8.70;82.20;;;;;;5054172;28;20691;-71
2022/02/02 03:30:17;;;;;;;23.05;18.80;;;8.80;81.50;;;;;;5053595;28;20301;-71
2022/02/02 03:33:06;;;;;;;20.13;18.70;;;8.80;80.70;;;;;;5053920;28;20205;-71
2022/02/02 03:49:33;;;;;;;20.73;19.05;;;8.80;80.30;;;;;;5053317;28;20196;-71
2022/02/02 03:52:28;;;;;;;22.95;21.05;;;8.70;79.70;;;;;;5053595;28;20200;-71
2022/02/02 03:55:02;;;;;;;23.92;21.90;;;8.70;79.60;;;;;;5053512;28;20197;-72
2022/02/02 03:57:37;;;;;;;21.92;20.17;;;8.70;79.50;;;;;;5053403;28;20200;-72
2022/02/02 04:03:28;;;;;;;22.00;20.05;;;8.60;79.80;;;;;;5011699;28;20190;-71
2022/02/02 04:06:04;;;;;;;22.50;20.65;;;8.70;79.50;;;;;;5011314;28;20660;-72
2022/02/02 04:08:33;;;;;;;21.88;19.88;;;8.60;79.40;;;;;;5038163;28;20196;-71
2022/02/02 04:11:04;;;;;;;22.95;20.88;;;8.60;79.60;;;;;;5052573;28;20252;-72
2022/02/02 04:14:15;;;;;;;23.75;21.80;;;8.70;79.60;;;;;;5053033;28;20247;-72
2022/02/02 04:39:01;;;;;;;24.17;22.25;;;8.50;79.70;;;;;;5031846;28;20547;-71
2022/02/02 04:52:59;;;;;;;23.48;21.08;;;8.60;78.60;;;;;;5052628;28;20202;-72
2022/02/02 04:55:32;;;;;;;24.55;22.35;;;8.60;78.40;;;;;;5052620;28;20201;-71
2022/02/02 04:58:12;;;;;;;23.20;20.83;;;8.60;78.40;;;;;;5052006;28;20239;-71
2022/02/02 05:06:40;;;;;;;25.65;23.60;;;8.50;78.00;;;;;;4932987;29;20204;-71
2022/02/02 05:09:20;;;;;;;24.05;22.13;;;8.60;77.50;;;;;;5023377;28;20193;-71
2022/02/02 05:17:39;;;;;;;25.48;22.10;;;8.30;78.20;;;;;;4978700;28;20611;-71
2022/02/02 05:20:35;;;;;;;24.25;21.98;;;8.30;78.60;;;;;;5035888;28;20594;-71
2022/02/02 05:50:54;;;;;;;21.85;20.25;;;8.30;79.60;;;;;;5051663;28;20311;-72
2022/02/02 05:53:22;;;;;;;22.45;20.77;;;8.30;79.00;;;;;;5051967;28;21321;-72
2022/02/02 05:55:52;;;;;;;23.55;21.50;;;8.30;78.90;;;;;;5051763;28;20288;-72
2022/02/02 05:58:26;;;;;;;24.50;22.20;;;8.30;78.90;;;;;;5051750;28;20197;-72
2022/02/02 06:00:54;;;;;;;23.00;21.10;;;8.40;78.70;;;;;;5051452;28;20593;-72
2022/02/02 06:03:26;;;;;;;23.77;22.00;;;8.30;78.70;;;;;;5051777;28;20292;-71
2022/02/02 06:05:55;;;;;;;24.38;22.17;;;8.40;78.10;;;;;;5051746;28;20562;-72
2022/02/02 06:08:23;;;;;;;24.02;21.88;;;8.40;78.50;;;;;;5051644;28;20205;-72
2022/02/02 06:10:51;;;;;;;25.48;20.70;;;8.50;78.00;;;;;;5052269;28;20223;-72
2022/02/02 06:13:19;;;;;;;25.80;24.08;;;8.50;77.50;;;;;;5055491;28;20280;-72
2022/02/02 06:15:47;;;;;;;24.25;22.50;;;8.50;77.20;;;;;;5055292;28;20232;-72
2022/02/02 06:18:13;;;;;;;24.25;21.75;;;8.40;77.60;;;;;;5055081;28;20215;-72
2022/02/02 06:20:51;;;;;;;28.17;21.08;;;8.40;76.00;;;;;;5055084;28;20215;-72
2022/02/02 06:23:29;;;;;;;24.13;22.55;;;8.40;76.70;;;;;;5055208;28;20287;-71
2022/02/02 06:26:00;;;;;;;24.77;23.10;;;8.40;76.50;;;;;;5055167;28;20207;-72
2022/02/02 06:28:33;;;;;;;25.35;23.38;;;8.40;75.50;;;;;;5055226;28;20662;-71
2022/02/02 06:31:03;;;;;;;24.15;22.13;;;8.40;76.20;;;;;;5054699;28;20227;-71
2022/02/02 06:33:34;;;;;;;24.27;21.95;;;8.50;76.10;;;;;;5055074;28;20196;-72
2022/02/02 06:36:02;;;;;;;25.27;23.30;;;8.50;76.50;;;;;;5054869;28;20201;-72
2022/02/02 06:38:31;;;;;;;25.25;23.15;;;8.60;76.40;;;;;;5054817;28;20204;-72
2022/02/02 06:41:00;;;;;;;25.95;22.42;;;8.60;76.70;;;;;;5054626;28;20213;-71
2022/02/02 06:43:29;;;;;;;27.48;25.02;;;8.50;76.70;;;;;;5054968;28;20283;-71
2022/02/02 06:45:59;;;;;;;23.45;21.63;;;8.60;76.70;;;;;;5054602;28;20730;-71
2022/02/02 06:48:28;;;;;;;22.27;20.58;;;8.60;77.10;;;;;;5054647;28;20211;-71
2022/02/02 06:51:01;;;;;;;24.65;22.65;;;8.50;77.20;;;;;;5054270;28;20267;-71
2022/02/02 06:53:37;;;;;;;23.45;21.52;;;8.50;77.50;;;;;;5054731;28;20193;-71
2022/02/02 06:56:16;;;;;;;23.98;22.20;;;8.40;77.30;;;;;;5054588;28;20654;-72
2022/02/02 06:59:06;;;;;;;27.42;24.85;;;8.40;77.80;;;;;;5054398;28;20200;-71
2022/02/02 07:01:46;;;;;;;24.52;22.35;;;8.40;78.30;;;;;;5054421;28;20212;-71
2022/02/02 07:04:32;;;;;;;26.13;24.42;;;8.40;78.80;;;;;;5054415;28;20207;-71
2022/02/02 07:07:12;;;;;;;25.20;22.77;;;8.50;78.90;;;;;;5054418;28;20220;-71
2022/02/02 07:10:01;;;;;;;25.23;23.20;;;8.50;78.70;;;;;;5053950;28;20231;-71
2022/02/02 07:12:48;;;;;;;25.50;23.35;;;8.50;78.80;;;;;;5054050;28;20228;-71
2022/02/02 07:15:22;;;;;;;25.10;22.98;;;8.50;79.10;;;;;;5054183;28;20252;-71
2022/02/02 07:18:06;;;;;;;24.45;22.10;;;8.40;79.10;;;;;;5054054;28;20250;-72
2022/02/02 07:20:43;;;;;;;26.27;24.05;;;8.50;79.10;;;;;;5053966;28;20655;-71
2022/02/02 07:26:31;;;;;;;23.90;21.70;;;8.50;78.80;;;;;;5053491;28;20192;-72
2022/02/02 07:29:06;;;;;;;23.80;22.20;;;8.50;78.80;;;;;;5053816;28;20202;-72
2022/02/02 07:31:45;;;;;;;23.80;21.85;;;8.40;78.70;;;;;;5053748;28;20310;-72
2022/02/02 07:34:24;;;;;;;23.88;21.98;;;8.50;79.30;;;;;;5053764;28;20201;-72
2022/02/02 07:36:56;;;;;;;23.08;21.00;;;8.60;79.10;;;;;;5053836;28;20200;-72
2022/02/02 07:39:26;;;;;;;24.75;22.80;;;8.50;79.40;;;;;;5053560;28;20200;-72
2022/02/02 07:41:58;;;;;;;25.65;23.42;;;8.70;79.30;;;;;;5053798;28;20307;-72
2022/02/02 07:44:31;;;;;;;25.58;22.83;;;8.60;79.40;;;;;;5053771;28;20686;-72
2022/02/02 07:47:04;;;;;;;26.00;23.48;;;8.60;79.50;;;;;;5053671;28;20578;-71
2022/02/02 07:49:36;;;;;;;24.67;22.52;;;8.60;80.00;;;;;;5053646;28;20292;-72
2022/02/02 07:52:04;;;;;;;23.50;21.35;;;8.60;80.70;;;;;;5053467;28;20666;-72
2022/02/02 07:54:37;;;;;;;25.38;23.20;;;8.50;81.10;;;;;;5053526;28;20224;-72
2022/02/02 07:57:10;;;;;;;23.40;21.48;;;8.50;81.90;;;;;;5053388;28;20200;-72
2022/02/02 07:59:49;;;;;;;24.75;21.98;;;8.40;82.20;;;;;;5052988;28;20242;-72
2022/02/02 08:02:19;;;;;;;26.02;23.30;;;8.40;82.00;;;;;;5053403;28;20651;-71
2022/02/02 08:04:46;;;;;;;25.77;23.42;;;8.40;81.80;;;;;;5053436;28;20254;-72
2022/02/02 08:07:21;;;;;;;24.98;22.90;;;8.40;82.50;;;;;;5053340;28;20201;-71
2022/02/02 08:09:58;;;;;;;26.35;24.23;;;8.50;82.10;;;;;;5052970;28;20227;-71
2022/02/02 08:12:30;;;;;;;25.35;23.30;;;8.40;81.60;;;;;;5052981;28;20262;-72
2022/02/02 08:14:59;;;;;;;24.15;21.98;;;8.60;81.20;;;;;;5053224;28;20283;-71
2022/02/02 08:17:26;;;;;;;25.90;23.88;;;8.50;80.70;;;;;;5052943;28;20551;-71
2022/02/02 08:19:53;;;;;;;24.33;22.00;;;8.50;81.20;;;;;;5052805;28;20216;-72
2022/02/02 08:22:20;;;;;;;25.35;23.15;;;8.50;81.00;;;;;;5053003;28;20299;-71
2022/02/02 08:24:47;;;;;;;24.23;22.00;;;8.50;80.20;;;;;;5052917;28;20196;-72
2022/02/02 08:27:14;;;;;;;27.00;24.65;;;8.60;80.10;;;;;;5052930;28;20622;-71
2022/02/02 08:29:41;;;;;;;25.50;23.70;;;8.60;80.00;;;;;;5052550;28;20280;-72
2022/02/02 08:32:10;;;;;;;24.48;22.42;;;8.60;80.80;;;;;;5052899;28;20221;-71
2022/02/02 08:34:44;;;;;;;23.65;21.73;;;8.40;82.20;;;;;;5051878;28;20200;-71
2022/02/02 08:37:11;;;;;;;26.48;23.77;;;8.40;82.40;;;;;;5052783;28;20250;-72
2022/02/02 08:39:52;;;;;;;25.30;23.40;;;8.50;82.50;;;;;;5052432;28;20203;-72
2022/02/02 08:42:19;;;;;;;25.02;22.45;;;8.60;82.60;;;;;;5052764;28;20284;-72
2022/02/02 08:44:51;;;;;;;25.02;23.20;;;8.60;83.60;;;;;;5052615;28;20201;-71
2022/02/02 08:47:22;;;;;;;25.33;22.95;;;8.60;83.50;;;;;;5052624;28;20196;-72
2022/02/02 08:49:57;;;;;;;24.48;22.40;;;8.60;84.40;;;;;;5052317;28;20216;-71
2022/02/02 08:52:38;;;;;;;27.70;24.95;;;8.30;85.10;;;;;;5052412;28;20247;-71
2022/02/02 08:55:07;;;;;;;24.52;22.27;;;8.10;86.10;;;;;;5052421;28;20196;-72
2022/02/02 08:57:45;;;;;;;23.23;21.23;;;8.20;86.60;;;;;;5052334;28;20196;-72
2022/02/02 09:00:15;;;;;;;23.58;21.13;;;8.40;86.20;;;;;;5052146;28;20260;-71
2022/02/02 09:02:55;;;;;;;24.48;21.95;;;8.40;84.60;;;;;;5052607;28;20204;-72
2022/02/02 09:05:24;;;;;;;24.75;22.40;;;8.50;84.20;;;;;;5052397;28;20246;-72
2022/02/02 09:07:51;;;;;;;25.00;22.55;;;8.60;84.60;;;;;;5052244;28;20570;-72
2022/02/02 09:10:25;;;;;;;23.20;21.23;;;8.70;83.90;;;;;;5052017;28;20290;-72
2022/02/02 09:24:07;;;;;;;25.95;23.35;;;9.00;80.80;;;;;;5052237;28;20318;-72
2022/02/02 09:34:47;;;;;;;26.08;23.35;;;9.00;79.70;;;;;;5052105;28;20562;-72
2022/02/02 09:37:16;;;;;;;24.83;22.27;;;9.10;79.50;;;;;;5052014;28;20197;-71
2022/02/02 09:39:49;;;;;;;27.67;24.77;;;9.00;79.30;;;;;;5051859;28;20217;-72
2022/02/02 09:42:19;;;;;;;23.90;21.90;;;8.90;79.60;;;;;;5051972;28;20237;-72
2022/02/02 09:44:54;;;;;;;26.30;23.75;;;9.10;79.70;;;;;;5053021;28;20287;-72
2022/02/02 09:47:25;;;;;;;27.23;24.92;;;9.00;79.00;;;;;;5056012;28;20391;-72
2022/02/02 09:50:00;;;;;;;25.48;23.23;;;9.00;78.70;;;;;;5055644;28;20246;-72
2022/02/02 09:52:34;;;;;;;27.67;24.88;;;9.10;79.00;;;;;;5056013;28;20313;-72
2022/02/02 09:55:07;;;;;;;24.58;22.15;;;9.10;79.00;;;;;;5055773;28;20262;-71
2022/02/02 09:58:07;;;;;;;24.75;22.60;;;9.10;78.70;;;;;;5055946;28;20205;-72
2022/02/02 10:00:44;;;;;;;25.67;23.27;;;9.20;78.30;;;;;;5055389;28;20756;-71
2022/02/02 10:03:34;;;;;;;27.50;25.60;;;9.20;77.90;;;;;;5055829;28;20286;-71
2022/02/02 10:06:14;;;;;;;23.70;21.88;;;9.30;77.60;;;;;;5055649;28;20200;-72
2022/02/02 10:09:13;;;;;;;25.77;23.80;;;9.30;77.10;;;;;;5055533;28;20205;-71
2022/02/02 10:12:06;;;;;;;30.42;23.08;;;9.30;76.80;;;;;;5055264;28;21085;-72
2022/02/02 10:14:37;;;;;;;27.03;24.60;;;9.60;75.80;;;;;;5055461;28;20197;-72
2022/02/02 10:17:10;;;;;;;26.27;23.93;;;9.70;76.00;;;;;;5055378;28;20447;-72
2022/02/02 10:19:37;;;;;;;28.40;25.97;;;9.90;74.40;;;;;;5055110;28;20957;-72
2022/02/02 10:22:22;;;;;;;25.17;22.47;;;9.80;73.80;;;;;;5055498;28;20447;-72
2022/02/02 10:24:52;;;;;;;26.43;24.53;;;9.80;74.20;;;;;;5053537;28;20451;-72
2022/02/02 10:27:27;;;;;;;24.03;22.03;;;9.50;76.40;;;;;;5055116;28;20493;-72
2022/02/02 10:29:54;;;;;;;25.42;23.38;;;9.40;77.90;;;;;;5054963;28;20828;-72
2022/02/02 10:32:43;;;;;;;26.90;25.00;;;9.30;78.50;;;;;;5054884;28;20311;-71
2022/02/02 10:35:27;;;;;;;22.90;21.10;;;9.40;78.60;;;;;;5050602;28;20451;-72
2022/02/02 10:37:58;;;;;;;24.10;22.40;;;9.50;79.00;;;;;;5055060;28;20461;-72
2022/02/02 10:40:38;;;;;;;23.50;21.80;;;9.80;78.40;;;;;;5054819;28;20964;-72
2022/02/02 10:43:21;;;;;;;25.53;23.43;;;10.00;78.10;;;;;;5055333;28;20517;-71
2022/02/02 10:45:48;;;;;;;25.40;23.30;;;9.90;79.40;;;;;;5054917;28;20500;-72
2022/02/02 10:48:25;;;;;;;25.43;23.20;;;10.00;79.10;;;;;;5054658;28;20952;-71
2022/02/02 10:51:02;;;;;;;25.30;23.30;;;10.00;78.70;;;;;;5054741;28;20462;-72
2022/02/02 10:53:46;;;;;;;30.53;27.63;;;10.20;78.20;;;;;;5054786;28;20514;-72
2022/02/02 10:56:33;;;;;;;26.60;24.57;;;10.20;78.30;;;;;;5053965;28;20454;-72
2022/02/02 11:01:49;;;;;;;27.33;25.13;;;10.10;76.80;;;;;;5054656;28;20972;-72
2022/02/02 11:07:02;;;;;;;26.07;23.60;;;10.30;75.30;;;;;;5054447;28;21058;-72
2022/02/02 11:09:31;;;;;;;26.10;24.00;;;10.10;74.10;;;;;;5054256;28;20542;-72
2022/02/02 11:11:58;;;;;;;26.90;24.40;;;10.30;74.10;;;;;;5054162;28;20479;-72
2022/02/02 11:14:35;;;;;;;25.80;23.77;;;10.20;73.30;;;;;;5054344;28;20451;-72
2022/02/02 11:17:07;;;;;;;24.60;22.50;;;10.00;73.50;;;;;;5054167;28;20798;-72
2022/02/02 11:19:38;;;;;;;27.43;24.73;;;10.00;73.70;;;;;;5053825;28;20858;-72
2022/02/02 11:22:30;;;;;;;24.73;22.70;;;10.00;72.80;;;;;;5054213;28;20461;-72
2022/02/02 11:25:21;;;;;;;23.80;22.10;;;10.00;72.80;;;;;;5054160;28;20462;-72
2022/02/02 11:27:52;;;;;;;25.43;23.37;;;10.00;72.50;;;;;;5053943;28;20462;-72
2022/02/02 11:30:41;;;;;;;25.60;23.53;;;10.00;73.00;;;;;;5053820;28;20822;-71
2022/02/02 11:33:25;;;;;;;27.23;25.00;;;10.20;72.70;;;;;;5054048;28;20491;-72
2022/02/02 11:35:56;;;;;;;27.47;25.10;;;10.20;72.00;;;;;;5053860;28;20450;-72
2022/02/02 11:38:41;;;;;;;25.57;23.27;;;10.20;71.30;;;;;;5053924;28;20458;-72
2022/02/02 11:41:43;;;;;;;27.27;24.90;;;10.20;72.00;;;;;;5053598;28;20475;-72
2022/02/02 11:44:20;;;;;;;25.10;22.70;;;10.10;71.60;;;;;;5053784;28;20497;-72
2022/02/02 11:46:52;;;;;;;28.50;25.80;;;10.10;72.30;;;;;;5053856;28;20516;-72
2022/02/02 11:49:31;;;;;;;29.13;26.03;;;10.20;71.60;;;;;;5053422;28;20463;-71
2022/02/02 11:52:02;;;;;;;26.37;24.17;;;10.40;71.40;;;;;;5053602;28;20450;-72
2022/02/02 11:54:49;;;;;;;26.00;23.80;;;10.30;69.30;;;;;;5053598;28;20444;-71
2022/02/02 11:57:20;;;;;;;26.00;23.97;;;10.20;70.00;;;;;;5053569;28;20459;-71
2022/02/02 12:02:47;;;;;;;27.43;25.03;;;10.00;70.70;;;;;;5053184;28;20493;-72
2022/02/02 12:05:25;;;;;;;29.00;26.70;;;10.10;70.40;;;;;;5053377;28;20447;-71
2022/02/02 12:08:06;;;;;;;26.77;24.27;;;9.80;70.80;;;;;;5052467;28;20451;-72
2022/02/02 12:10:57;;;;;;;25.93;23.50;;;10.00;71.40;;;;;;5052739;28;20463;-72
2022/02/02 12:36:02;;;;;;;27.23;25.20;;;10.40;68.10;;;;;;5052786;28;20569;-72
2022/02/02 12:47:17;;;;;;;28.03;25.73;;;10.40;68.20;;;;;;5052829;28;20435;-72
2022/02/02 12:58:03;;;;;;;25.67;23.57;;;9.90;71.80;;;;;;5052097;28;20443;-71
2022/02/02 13:00:40;;;;;;;26.73;24.60;;;10.20;72.10;;;;;;5052210;28;20471;-72
2022/02/02 13:03:08;;;;;;;27.87;25.70;;;10.20;71.50;;;;;;5052276;28;20443;-72
2022/02/02 13:05:39;;;;;;;27.63;25.10;;;10.30;71.20;;;;;;5052473;28;20940;-72
2022/02/02 13:08:07;;;;;;;24.43;22.80;;;10.50;71.20;;;;;;5052451;28;20508;-71
2022/02/02 13:10:36;;;;;;;26.13;23.90;;;10.30;71.50;;;;;;5052117;28;20471;-72
2022/02/02 13:13:07;;;;;;;25.70;23.67;;;10.50;71.40;;;;;;5052161;28;20918;-71
2022/02/02 13:15:39;;;;;;;30.03;22.97;;;10.10;72.20;;;;;;5052504;28;20455;-71
2022/02/02 13:18:21;;;;;;;25.53;23.30;;;10.10;72.90;;;;;;5052139;28;20508;-72
2022/02/02 13:21:05;;;;;;;28.43;26.33;;;10.00;73.70;;;;;;5051637;28;20966;-71
2022/02/02 13:23:44;;;;;;;24.80;22.70;;;9.80;75.90;;;;;;5052326;28;20538;-71
2022/02/02 13:26:17;;;;;;;24.33;22.80;;;9.80;78.30;;;;;;5052125;28;20448;-72
2022/02/02 13:28:56;;;;;;;23.43;21.77;;;9.80;78.40;;;;;;5052286;28;20794;-72
2022/02/02 13:31:48;;;;;;;24.80;22.87;;;9.60;78.00;;;;;;5052185;28;20562;-71
2022/02/02 13:34:23;;;;;;;23.87;22.27;;;9.20;79.90;;;;;;5052131;28;20486;-72
2022/02/02 13:37:13;;;;;;;23.80;21.70;;;9.20;81.20;;;;;;5052223;28;20451;-71
2022/02/02 13:42:57;;;;;;;22.55;20.60;;;9.30;81.50;;;;;;5052099;28;20192;-72
2022/02/02 13:54:33;;;;;;;21.83;20.50;;;9.10;82.00;;;;;;5051855;28;20730;-72
2022/02/02 13:57:29;;;;;;;22.88;21.40;;;9.30;81.20;;;;;;5051938;28;20472;-71
2022/02/02 14:00:24;;;;;;;23.10;21.40;;;9.30;79.50;;;;;;5051548;28;20225;-72
2022/02/02 14:06:03;;;;;;;23.23;21.60;;;9.60;80.10;;;;;;5051795;28;20458;-72
2022/02/02 14:33:47;;;;;;;25.73;23.60;;;9.50;81.10;;;;;;4966167;28;20473;-72
2022/02/02 14:36:18;;;;;;;24.13;22.63;;;9.50;81.10;;;;;;4974207;28;20455;-72
2022/02/02 14:38:49;;;;;;;23.10;21.50;;;9.40;81.20;;;;;;5011422;28;20956;-72
2022/02/02 14:41:23;;;;;;;27.10;24.37;;;9.40;81.30;;;;;;5054528;28;21005;-72
2022/02/02 14:43:58;;;;;;;25.17;23.40;;;9.50;82.30;;;;;;5054883;28;20989;-72
2022/02/02 14:46:32;;;;;;;25.27;23.27;;;9.40;82.80;;;;;;5054877;28;20924;-72
2022/02/02 14:49:05;;;;;;;25.17;23.30;;;9.40;82.20;;;;;;5054788;28;20952;-72
2022/02/02 14:51:57;;;;;;;24.83;22.93;;;9.50;82.20;;;;;;5054681;28;21033;-72
2022/02/02 14:54:40;;;;;;;22.50;20.90;;;9.40;82.00;;;;;;5054585;28;20478;-72
2022/02/02 15:23:48;;;;;;;24.53;22.83;;;9.40;84.00;;;;;;5054420;28;20485;-71
2022/02/02 15:27:58;;;;;;;23.73;22.13;;;9.10;83.50;;;;;;5054334;28;21038;-71
2022/02/02 15:30:30;;;;;;;23.60;21.67;;;9.00;83.90;;;;;;5053875;28;20528;-71
2022/02/02 15:33:02;;;;;;;23.50;21.73;;;9.00;84.00;;;;;;5054069;28;20224;-71
2022/02/02 15:35:32;;;;;;;21.70;20.13;;;9.00;84.70;;;;;;5054062;28;20231;-71
2022/02/02 15:38:02;;;;;;;24.20;22.30;;;9.00;84.00;;;;;;5054116;28;20586;-71
2022/02/02 15:40:33;;;;;;;21.00;19.63;;;9.00;84.40;;;;;;5053815;28;20968;-71
2022/02/02 15:43:16;;;;;;;23.65;22.05;;;8.90;84.40;;;;;;5053818;28;20201;-73
2022/02/02 16:02:29;;;;;;;23.40;21.60;;;8.60;86.00;;;;;;5042698;28;20231;-72
2022/02/02 16:04:58;;;;;;;22.92;21.50;;;8.50;89.00;;;;;;5053499;28;20300;-72
2022/02/02 16:07:28;;;;;;;23.23;21.00;;;8.50;87.10;;;;;;5053535;28;20279;-72
2022/02/02 16:09:58;;;;;;;23.75;22.05;;;8.50;86.60;;;;;;5053216;28;20220;-72
2022/02/02 16:12:31;;;;;;;20.95;19.75;;;8.50;86.50;;;;;;5053314;28;20197;-72
2022/02/02 16:15:15;;;;;;;22.25;20.92;;;8.50;86.50;;;;;;5053509;28;20196;-72
2022/02/02 16:18:04;;;;;;;23.58;21.95;;;8.60;86.00;;;;;;5054329;28;20234;-72
2022/02/02 16:31:49;;;;;;;21.25;19.95;;;8.30;87.00;;;;;;5053091;28;20308;-72
2022/02/02 16:37:03;;;;;;;20.08;18.88;;;8.30;87.20;;;;;;5043838;28;20193;-72
2022/02/02 16:39:33;;;;;;;19.95;18.75;;;8.30;86.80;;;;;;5052736;28;20287;-72
2022/02/02 16:44:44;;;;;;;21.30;19.92;;;8.30;87.10;;;;;;5052894;28;20199;-72
2022/02/02 16:47:11;;;;;;;21.98;20.45;;;8.20;87.60;;;;;;5052647;28;20638;-72
2022/02/02 16:49:38;;;;;;;20.45;19.02;;;8.30;87.30;;;;;;5052294;28;20689;-72
2022/02/02 16:52:07;;;;;;;21.05;19.85;;;8.30;87.40;;;;;;5052609;28;20201;-73
2022/02/02 16:54:39;;;;;;;19.92;18.80;;;8.30;87.40;;;;;;5051744;28;20239;-72
2022/02/02 17:30:25;;;;;;;19.65;18.40;;;8.40;86.50;;;;;;5044510;28;20220;-72
2022/02/02 17:32:57;;;;;;;20.48;19.38;;;8.40;86.50;;;;;;5052158;28;20193;-72
2022/02/02 17:35:32;;;;;;;18.38;17.33;;;8.40;86.80;;;;;;5052303;28;20283;-72
2022/02/02 17:38:08;;;;;;;19.90;18.63;;;8.30;87.10;;;;;;5052301;28;20204;-72
2022/02/02 17:40:53;;;;;;;19.92;18.73;;;8.30;87.20;;;;;;5052045;28;20270;-72
2022/02/02 17:56:01;;;;;;;21.63;20.23;;;8.30;87.10;;;;;;5039160;28;20231;-72
2022/02/02 18:19:19;;;;;;;24.55;22.75;;;7.90;90.20;;;;;;5055519;28;20195;-72
2022/02/02 18:21:46;;;;;;;22.73;21.23;;;7.80;90.50;;;;;;5055828;28;20221;-72
2022/02/02 18:24:18;;;;;;;21.85;20.33;;;7.70;91.00;;;;;;5055619;28;20188;-72
2022/02/02 18:26:51;;;;;;;22.30;20.90;;;7.60;91.10;;;;;;5055529;28;20208;-72
2022/02/02 18:29:30;;;;;;;19.75;18.63;;;7.60;91.30;;;;;;5055333;28;20724;-72
2022/02/02 18:32:16;;;;;;;21.80;20.10;;;7.50;91.70;;;;;;5055199;28;20697;-72
2022/02/02 18:34:49;;;;;;;22.02;20.58;;;7.50;91.80;;;;;;5055182;28;20346;-72
2022/02/02 18:46:01;;;;;;;22.50;21.10;;;7.40;92.10;;;;;;5055118;28;20744;-72
2022/02/02 18:48:35;;;;;;;21.70;20.27;;;7.40;93.50;;;;;;5054743;28;20262;-72
2022/02/02 18:51:22;;;;;;;21.67;20.30;;;7.30;95.50;;;;;;5054558;28;20221;-72
2022/02/02 18:54:06;;;;;;;21.80;20.23;;;7.40;95.40;;;;;;5054755;28;20221;-72
2022/02/02 18:56:46;;;;;;;25.63;23.45;;;7.30;94.20;;;;;;5054877;28;20553;-72
2022/02/02 18:59:30;;;;;;;22.80;20.80;;;7.20;94.30;;;;;;5054324;28;20658;-72
2022/02/02 19:02:05;;;;;;;193.75;38.20;;;7.20;93.90;;;;;;5054594;28;20217;-72
2022/02/02 19:05:09;;;;;;;21.23;19.70;;;7.10;95.80;;;;;;5054525;28;20231;-72
2022/02/02 19:38:21;;;;;;;22.05;20.27;;;6.70;94.50;;;;;;5054317;28;20266;-73
2022/02/02 20:01:40;;;;;;;22.60;20.75;;;6.50;94.30;;;;;;5055281;28;20208;-73
2022/02/02 20:03:28;;;;;;;1502.72;196.55;;;6.40;96.20;;;;;;5053400;28;20195;-73
2022/02/02 20:06:05;;;;;;;22.83;20.92;;;6.40;98.90;;;;;;5053287;28;20200;-72
2022/02/02 20:08:46;;;;;;;23.35;21.85;;;6.30;98.90;;;;;;5053422;28;20200;-73
2022/02/02 20:11:19;;;;;;;28.17;23.88;;;6.30;99.30;;;;;;5053332;28;20264;-72
2022/02/02 20:13:46;;;;;;;112.35;30.17;;;6.30;98.10;;;;;;5053003;28;20217;-73
2022/02/02 20:16:13;;;;;;;429.55;51.95;;;6.30;97.70;;;;;;5053337;28;20193;-73
2022/02/02 20:18:43;;;;;;;24.23;22.52;;;6.30;98.50;;;;;;5052929;28;20753;-72
2022/02/02 20:21:12;;;;;;;22.52;20.75;;;6.30;97.70;;;;;;5052959;28;20250;-72
2022/02/02 20:23:44;;;;;;;23.30;21.70;;;6.20;96.90;;;;;;5053270;28;20203;-73
2022/02/02 20:26:14;;;;;;;20.40;19.10;;;6.20;96.30;;;;;;5053289;28;20197;-73
2022/02/02 20:28:41;;;;;;;23.48;21.80;;;6.20;96.10;;;;;;5052293;28;20566;-72
2022/02/02 20:31:08;;;;;;;24.52;22.23;;;6.10;95.90;;;;;;5052357;28;20714;-72
2022/02/02 20:33:35;;;;;;;23.38;21.85;;;6.10;95.80;;;;;;5053048;28;20682;-72
2022/02/02 20:36:02;;;;;;;22.70;21.30;;;6.20;95.40;;;;;;5052912;28;20659;-72
2022/02/02 20:38:31;;;;;;;25.70;23.73;;;6.20;95.00;;;;;;5052931;28;20203;-72
2022/02/02 20:41:01;;;;;;;23.95;22.45;;;6.20;94.80;;;;;;5052459;28;20255;-72
2022/02/02 20:43:32;;;;;;;23.77;21.92;;;6.20;94.70;;;;;;5052858;28;20211;-72
2022/02/02 20:46:33;;;;;;;22.67;21.27;;;6.10;94.80;;;;;;5052705;28;20196;-72
2022/02/02 21:00:27;;;;;;;23.55;21.63;;;6.10;95.40;;;;;;5052182;28;20224;-73
2022/02/02 21:03:32;;;;;;;23.33;21.38;;;6.20;95.70;;;;;;5052611;28;20219;-72
2022/02/02 21:06:13;;;;;;;21.95;20.35;;;6.20;95.40;;;;;;5052328;28;20211;-72
2022/02/02 21:09:04;;;;;;;33.40;21.75;;;6.20;95.60;;;;;;5052325;28;20203;-72
2022/02/02 21:11:52;;;;;;;83.35;25.35;;;6.30;95.30;;;;;;5051963;28;20625;-72
2022/02/02 21:14:23;;;;;;;25.52;23.42;;;6.30;97.10;;;;;;5052390;28;20220;-73